Main page
METAR-TAF:

METAR-TAF

Airports :

Chibougamau/Chapais Airport

Chibougamau, Quebec, Canada

latitude: 49-46N, longitude: 074-32W, elevation: 388 m

Current weather observation

The report was made 12 hours and 10 minutes ago, at 21:00 UTC
Wind 12 kt from the North/Northwest with gusts up to 23 kt
Temperature 25°C
Humidity 32%
Pressure 1007 hPa
Visibility: 14.5 km
Clear sky

METAR: CYMT 242100Z AUTO 34012G23KT 9SM CLR 25/07 A2973 RMK SLP070 DENSITY ALT 3000FT

Time: 05:10 (09:10 UTC)

Forecast

The report was made 15 hours and 19 minutes ago, at 17:51 UTC
Forecast valid from 24 at 18 UTC to 24 at 24 UTC
Wind 15 kt from the Northwest with gusts up to 25 kt
Visibility: 10 km
Broken clouds at a height of 8000 ft

TAF: CYMT 241751Z 2418/2424 32015G25KT P6SM BKN080 RMK FCST BASED ON AUTO OBS. NXT FCST BY 251200Z

Weather observations and forecasts of more than 4000 airports (METAR and TAF reports).

The available stations are represented by yellow and red dots on the map.

Hover mouse over dot to see the name of the station.

Then click to see weather observations and forecasts.

To change the map : click on the green buttons with a black cross to zoom in, on the green button with a dash to zoom out, or on the green arrows for adjacent maps.


METAR-TAF: